Laoag International Airport
RPLI : now visible

Airfield :











YOU CAN JOIN US ON...

 
LOGIN :

Register | Disclaimer

   EN    FR    IT 

 









Legend :    VFR   Marginal VFR   IFR   Intensive IFR   Very Intensive IFR
Visi :
Ceiling :
>= 8 km
>= 3000ft
5 to 8 km
1000 to 3000 ft
1500m to 5 km
500 to 1000 ft
800 to 1500m
200 to 500 ft
< 800m
< 200 ft
Symbols :   Thunderstorms  Fog  Heavy snow  Heavy precipitations  Wind > 20 kt






- Airport Elevation : 25 ft
- IATA code : LAO


RPLI - Laoag International

CURRENT METAR :
  • 230700Z 19008KT 6000 RA FEW017CB BKN020 OVC080 27/23 Q0999 TEMPO LWRG 4000 +RA RMK A2950 CB SW

EXPIRED METARs :
  • 230600Z 18009KT 7000 -RA FEW017CB OVC080 26/25 Q1000 TEMPO VSBY LWRG 4000 +RA RMK A2953 CB SW
  • 230500Z 17010KT 6000 RA FEW017CB BKN020 OVC080 26/25 Q1001 TEMPO VSBY LWRG 4000 +RA RMK A2956 CB SW
  • 230400Z 19013KT 4000 RA FEW017CB OVC080 25/25 Q1001 NOSIG RMK A2956 CB NNE
  • 230300Z 18010KT 4000 RA FEW017CB BKN018 OVC080 25/24 Q1002 NOSIG RMK A2959 CB SSW

TAF TAF RPLI
Valid from the 23 at 06:00 until the 24 at 06:00 UTC


230500Z 2306/2406 22008KT 6000 RA SCT018 OVC080
TEMPO 2306/2312 22010G24KT 3000 TSRA SCT017CB OVC070
TEMPO 2400/2406 22012G26KT 1000 TSRA SCT017CB OVC070
RPHI FIR / Asia



MET'MAP, your aeronautical weather chart ! - Copyright ORBIFLY December 2007 - Disclaimer

ORBIFLY MET'MAP TEAM :

Programming & Development : Alexandra Zaïnal
Original concept : Baudouin d'Aumeries
Technical & hardware support : Manuel Goepfert
Assistance : Marc-Olivier Méhu




SOURCES & CREDITS :

   NOAA       Earth
Advisory